createdAt,value
2023-04-09T00:01:40.750Z,22.33
2023-04-09T00:04:09.386Z,23.17
2023-04-09T00:06:38.479Z,23.83
2023-04-09T00:09:08.126Z,23.17
2023-04-09T00:11:36.326Z,22.13
2023-04-09T00:14:04.535Z,22.17
2023-04-09T00:16:32.825Z,23.40
2023-04-09T00:19:01.129Z,22.33
2023-04-09T00:21:29.525Z,23.07
2023-04-09T00:23:57.696Z,23.87
2023-04-09T00:26:27.559Z,23.67
2023-04-09T00:28:56.199Z,22.27
2023-04-09T00:31:24.688Z,23.77
2023-04-09T00:33:53.044Z,22.93
2023-04-09T00:36:21.265Z,23.87
2023-04-09T00:38:51.834Z,22.77
2023-04-09T00:41:20.832Z,22.43
2023-04-09T00:43:50.747Z,23.23
2023-04-09T00:46:19.480Z,24.50
2023-04-09T00:48:47.721Z,24.20
2023-04-09T00:51:16.568Z,23.37
2023-04-09T00:53:44.954Z,24.70
2023-04-09T00:56:16.392Z,23.30
2023-04-09T00:58:44.603Z,24.20
2023-04-09T01:01:14.167Z,23.37
2023-04-09T01:03:43.652Z,23.70
2023-04-09T01:06:33.765Z,23.90
2023-04-09T01:09:07.278Z,22.93
2023-04-09T01:11:40.048Z,22.40
2023-04-09T01:14:15.608Z,23.10
2023-04-09T01:16:48.746Z,22.93
2023-04-09T01:19:34.657Z,21.83
2023-04-09T01:22:04.989Z,23.70
2023-04-09T01:24:46.185Z,22.90
2023-04-09T01:27:15.708Z,23.00
2023-04-09T01:29:49.094Z,23.17
2023-04-09T01:32:20.416Z,23.73
2023-04-09T01:34:50.312Z,23.60
2023-04-09T01:37:20.041Z,22.53
2023-04-09T01:39:48.586Z,23.20
2023-04-09T01:42:18.838Z,23.93
2023-04-09T01:44:49.190Z,22.33
2023-04-09T01:47:17.761Z,23.57
2023-04-09T01:49:47.068Z,22.63
2023-04-09T01:52:16.154Z,21.67
2023-04-09T01:54:44.293Z,22.03
2023-04-09T01:57:12.559Z,22.73
2023-04-09T01:59:41.200Z,22.97
2023-04-09T02:02:13.887Z,22.10
2023-04-09T02:04:47.678Z,22.87
2023-04-09T02:07:24.551Z,22.83
2023-04-09T02:09:55.075Z,22.67
2023-04-09T02:12:25.659Z,24.17
2023-04-09T02:14:55.722Z,23.13
2023-04-09T02:17:25.348Z,23.37
2023-04-09T02:19:53.606Z,22.43
2023-04-09T02:22:21.924Z,23.80
2023-04-09T02:24:50.141Z,23.47
2023-04-09T02:27:18.572Z,23.80
2023-04-09T02:29:47.147Z,22.13
2023-04-09T02:32:15.611Z,23.90
2023-04-09T02:34:45.878Z,21.60
2023-04-09T02:37:14.396Z,23.07
2023-04-09T02:39:42.647Z,22.07
2023-04-09T02:42:11.101Z,21.53
2023-04-09T02:44:39.401Z,22.20
2023-04-09T02:47:07.780Z,21.13
2023-04-09T02:49:36.127Z,18.90
2023-04-09T02:52:05.912Z,18.57
2023-04-09T02:54:34.217Z,18.70
2023-04-09T02:57:02.459Z,19.27
2023-04-09T02:59:33.025Z,19.13
2023-04-09T03:02:01.207Z,21.73
2023-04-09T03:04:29.640Z,21.20
2023-04-09T03:06:57.848Z,20.60
2023-04-09T03:09:27.445Z,20.07
2023-04-09T03:11:56.492Z,21.20
2023-04-09T03:14:24.848Z,20.00
2023-04-09T03:16:53.408Z,19.93
2023-04-09T03:19:21.611Z,18.97
2023-04-09T03:21:51.492Z,18.80
2023-04-09T03:24:19.753Z,19.83
2023-04-09T03:26:49.629Z,18.27
2023-04-09T03:29:18.151Z,18.27
2023-04-09T03:31:46.420Z,17.90
2023-04-09T03:34:14.866Z,18.03
2023-04-09T03:36:43.123Z,17.20
2023-04-09T03:39:11.369Z,17.57
2023-04-09T03:41:39.686Z,16.60
2023-04-09T03:44:09.478Z,17.20
2023-04-09T03:46:37.809Z,17.80
2023-04-09T03:49:06.158Z,17.43
2023-04-09T03:51:34.399Z,17.17
2023-04-09T03:54:03.063Z,16.87
2023-04-09T03:56:31.256Z,17.70
2023-04-09T03:58:59.638Z,18.27
2023-04-09T04:01:29.282Z,18.93
2023-04-09T04:03:57.652Z,19.10
2023-04-09T04:06:26.110Z,19.67
2023-04-09T04:08:55.034Z,18.00
2023-04-09T04:11:23.372Z,17.23
2023-04-09T04:13:51.669Z,18.57
2023-04-09T04:16:19.889Z,19.53
2023-04-09T04:18:49.592Z,19.50
2023-04-09T04:21:18.265Z,18.70
2023-04-09T04:23:46.757Z,20.60
2023-04-09T04:26:14.963Z,19.13
2023-04-09T04:28:43.611Z,18.63
2023-04-09T04:31:13.106Z,20.07
2023-04-09T04:33:42.872Z,20.40
2023-04-09T04:36:13.959Z,18.80
2023-04-09T04:38:43.029Z,18.33
2023-04-09T04:41:12.475Z,21.03
2023-04-09T04:43:42.126Z,19.90
2023-04-09T04:46:10.659Z,20.30
2023-04-09T04:48:38.899Z,19.40
2023-04-09T04:51:07.420Z,19.97
2023-04-09T04:53:37.009Z,19.00
2023-04-09T04:56:06.368Z,19.10
2023-04-09T04:58:34.615Z,18.17
2023-04-09T05:01:03.070Z,19.60
2023-04-09T05:03:31.386Z,20.03
2023-04-09T05:05:59.786Z,19.47
2023-04-09T05:08:28.061Z,19.03
2023-04-09T05:10:57.709Z,19.93
2023-04-09T05:13:26.013Z,19.17
2023-04-09T05:15:54.244Z,20.60
2023-04-09T05:18:22.443Z,19.07
2023-04-09T05:20:51.028Z,19.70
2023-04-09T05:23:19.202Z,18.50
2023-04-09T05:25:49.705Z,19.43
2023-04-09T05:28:19.244Z,18.27
2023-04-09T05:30:48.129Z,17.63
2023-04-09T05:33:16.401Z,15.80
2023-04-09T05:35:44.889Z,15.80
2023-04-09T05:38:14.814Z,15.63
2023-04-09T05:40:45.036Z,16.00
2023-04-09T05:43:13.528Z,13.67
2023-04-09T05:45:43.288Z,15.73
2023-04-09T05:48:11.698Z,14.97
2023-04-09T05:50:51.465Z,14.07
2023-04-09T05:53:23.592Z,13.93
2023-04-09T05:55:51.965Z,15.00
2023-04-09T05:58:20.462Z,14.17
2023-04-09T06:00:51.628Z,15.00
2023-04-09T06:03:20.399Z,14.83
2023-04-09T06:05:49.202Z,13.83
2023-04-09T06:08:17.440Z,14.07
2023-04-09T06:10:45.599Z,16.50
2023-04-09T06:13:13.903Z,16.00
2023-04-09T06:15:42.100Z,14.67
2023-04-09T06:18:11.982Z,15.50
2023-04-09T06:20:41.524Z,15.93
2023-04-09T06:23:09.819Z,15.60
2023-04-09T06:25:38.199Z,15.07
2023-04-09T06:28:06.743Z,15.53
2023-04-09T06:30:37.133Z,15.83
2023-04-09T06:33:05.451Z,16.03
2023-04-09T06:35:35.054Z,16.63
2023-04-09T06:38:03.568Z,16.40
2023-04-09T06:40:31.802Z,16.27
2023-04-09T06:43:00.115Z,15.73
2023-04-09T06:45:28.522Z,18.43
2023-04-09T06:47:57.221Z,15.57
2023-04-09T06:50:25.812Z,15.83
2023-04-09T06:52:55.604Z,15.73
2023-04-09T06:55:23.760Z,16.67
2023-04-09T06:57:52.398Z,16.23
2023-04-09T07:00:20.655Z,16.00
2023-04-09T07:02:49.156Z,18.27
2023-04-09T07:05:17.946Z,17.83
2023-04-09T07:07:46.458Z,17.03
2023-04-09T07:10:16.420Z,16.93
2023-04-09T07:12:44.693Z,16.83
2023-04-09T07:15:13.065Z,16.47
2023-04-09T07:17:41.796Z,18.07
2023-04-09T07:20:11.084Z,18.77
2023-04-09T07:22:40.208Z,17.03
2023-04-09T07:25:10.135Z,17.60
2023-04-09T07:27:40.114Z,18.77
2023-04-09T07:30:10.783Z,18.20
2023-04-09T07:32:40.016Z,19.23
2023-04-09T07:35:10.819Z,19.73
2023-04-09T07:37:39.590Z,19.63
2023-04-09T07:40:12.241Z,18.77
2023-04-09T07:42:42.833Z,17.57
2023-04-09T07:45:11.254Z,18.13
2023-04-09T07:47:42.171Z,17.47
2023-04-09T07:50:16.702Z,17.10
2023-04-09T07:52:45.917Z,17.13
2023-04-09T07:55:16.263Z,16.23
2023-04-09T07:57:47.072Z,17.93
2023-04-09T08:00:16.562Z,17.17
2023-04-09T08:02:45.859Z,16.73
2023-04-09T08:05:32.172Z,17.50
2023-04-09T08:08:01.827Z,17.60
2023-04-09T08:10:30.731Z,17.50
2023-04-09T08:13:01.648Z,17.20
2023-04-09T08:15:30.501Z,18.03
2023-04-09T08:17:59.236Z,17.83
2023-04-09T08:20:29.542Z,18.37
2023-04-09T08:22:59.438Z,17.53
2023-04-09T08:25:28.590Z,18.60
2023-04-09T08:27:57.061Z,17.63
2023-04-09T08:30:27.455Z,17.73
2023-04-09T08:32:56.106Z,18.67
2023-04-09T08:35:28.510Z,19.20
2023-04-09T08:38:01.850Z,19.73
2023-04-09T08:40:35.069Z,20.73
2023-04-09T08:43:06.724Z,19.40
2023-04-09T08:45:36.790Z,19.33
2023-04-09T08:48:06.578Z,19.33
2023-04-09T08:50:34.975Z,19.40
2023-04-09T08:53:05.741Z,20.47
2023-04-09T08:55:35.549Z,19.57
2023-04-09T08:58:07.275Z,18.80
2023-04-09T09:00:37.103Z,19.43
2023-04-09T09:03:07.276Z,19.67
2023-04-09T09:05:39.894Z,19.37
2023-04-09T09:08:10.129Z,19.90
2023-04-09T09:10:39.731Z,20.27
2023-04-09T09:13:22.521Z,20.40
2023-04-09T09:15:55.303Z,19.63
2023-04-09T09:18:39.786Z,21.43
2023-04-09T09:21:14.472Z,20.30
2023-04-09T09:23:43.397Z,20.37
2023-04-09T09:26:16.390Z,20.53
2023-04-09T09:28:45.456Z,18.80
2023-04-09T09:31:16.029Z,21.23
2023-04-09T09:33:44.830Z,20.23
2023-04-09T09:36:13.482Z,20.23
2023-04-09T09:38:56.454Z,20.23
2023-04-09T09:41:26.019Z,20.97
2023-04-09T09:43:54.565Z,21.50
2023-04-09T09:46:27.468Z,20.23
2023-04-09T09:48:57.608Z,20.47
2023-04-09T09:51:29.774Z,21.13
2023-04-09T09:53:58.874Z,21.20
2023-04-09T09:56:33.412Z,20.23
2023-04-09T09:59:15.320Z,22.00
2023-04-09T10:01:48.909Z,20.83
2023-04-09T10:04:21.192Z,20.73
2023-04-09T10:06:53.329Z,21.47
2023-04-09T10:09:28.127Z,21.53
2023-04-09T10:11:59.360Z,20.77
2023-04-09T10:14:29.396Z,22.03
2023-04-09T10:16:59.364Z,19.80
2023-04-09T10:19:28.204Z,21.20
2023-04-09T10:22:06.220Z,20.37
2023-04-09T10:24:39.750Z,21.07
2023-04-09T10:27:15.104Z,18.53
2023-04-09T10:29:46.536Z,19.60
2023-04-09T10:32:23.590Z,20.60
2023-04-09T10:34:58.496Z,20.77
2023-04-09T10:37:34.212Z,20.93
2023-04-09T10:40:05.227Z,21.10
2023-04-09T10:42:36.686Z,19.87
2023-04-09T10:45:22.413Z,20.33
2023-04-09T10:47:54.865Z,20.00
2023-04-09T10:50:30.928Z,20.37
2023-04-09T10:53:00.755Z,19.43
2023-04-09T10:55:35.452Z,19.07
2023-04-09T10:58:05.864Z,18.60
2023-04-09T11:00:37.941Z,19.17
2023-04-09T11:03:24.926Z,18.93
2023-04-09T11:06:01.081Z,18.10
2023-04-09T11:08:32.271Z,18.60
2023-04-09T11:11:01.535Z,19.47
2023-04-09T11:13:31.359Z,18.30
2023-04-09T11:16:01.205Z,18.47
2023-04-09T11:18:34.042Z,19.30
2023-04-09T11:21:04.302Z,18.47
2023-04-09T11:23:33.590Z,19.00
2023-04-09T11:26:03.908Z,18.07
2023-04-09T11:28:32.294Z,18.00
2023-04-09T11:31:00.592Z,16.93
2023-04-09T11:33:34.809Z,16.97
2023-04-09T11:36:06.426Z,15.53
2023-04-09T11:38:35.148Z,16.80
2023-04-09T11:41:03.360Z,15.37
2023-04-09T11:43:31.733Z,15.50
2023-04-09T11:46:00.751Z,16.17
2023-04-09T11:48:29.189Z,18.63
2023-04-09T11:50:59.084Z,16.67
2023-04-09T11:53:32.211Z,17.43
2023-04-09T11:56:01.649Z,16.50
2023-04-09T11:58:29.910Z,15.73
2023-04-09T12:01:00.419Z,15.40
2023-04-09T12:03:30.786Z,16.33
2023-04-09T12:06:03.882Z,16.03
2023-04-09T12:08:34.624Z,16.57
2023-04-09T12:11:11.456Z,16.70
2023-04-09T12:13:43.256Z,17.43
2023-04-09T12:16:12.274Z,16.13
2023-04-09T12:18:41.178Z,16.00
2023-04-09T12:21:10.924Z,15.03
2023-04-09T12:23:39.119Z,13.87
2023-04-09T12:26:07.974Z,14.27
2023-04-09T12:28:37.148Z,12.90
2023-04-09T12:31:06.178Z,12.87
2023-04-09T12:33:37.969Z,13.67
2023-04-09T12:36:06.567Z,14.30
2023-04-09T12:38:36.118Z,14.13
2023-04-09T12:41:04.968Z,14.33
2023-04-09T12:43:40.269Z,14.27
2023-04-09T12:46:08.787Z,14.70
2023-04-09T12:48:40.478Z,13.73
2023-04-09T12:51:09.153Z,15.03
2023-04-09T12:53:46.090Z,15.07
2023-04-09T12:56:14.613Z,16.30
2023-04-09T12:58:42.992Z,17.53
2023-04-09T13:01:11.486Z,13.60
2023-04-09T13:03:41.480Z,12.97
2023-04-09T13:06:10.256Z,15.00
2023-04-09T13:08:38.536Z,12.23
2023-04-09T13:11:08.434Z,14.37
2023-04-09T13:13:36.606Z,11.63
2023-04-09T13:16:05.398Z,10.90
2023-04-09T13:18:35.749Z,11.27
2023-04-09T13:21:04.503Z,11.90
2023-04-09T13:23:33.276Z,15.47
2023-04-09T13:26:01.748Z,13.07
2023-04-09T13:28:31.289Z,12.60
2023-04-09T13:30:59.514Z,11.13
2023-04-09T13:33:28.013Z,11.00
2023-04-09T13:35:58.354Z,10.30
2023-04-09T13:38:26.722Z,11.73
2023-04-09T13:40:56.465Z,11.77
2023-04-09T13:43:28.139Z,11.33
2023-04-09T13:45:58.274Z,11.53
2023-04-09T13:48:26.902Z,11.83
2023-04-09T13:50:57.656Z,10.93
2023-04-09T13:53:26.208Z,10.73
2023-04-09T13:55:54.586Z,11.27
2023-04-09T13:58:24.896Z,10.57
2023-04-09T14:00:53.478Z,11.50
2023-04-09T14:03:24.902Z,10.93
2023-04-09T14:05:53.675Z,11.53
2023-04-09T14:08:22.264Z,10.67
2023-04-09T14:10:52.530Z,10.87
2023-04-09T14:13:21.639Z,11.17
2023-04-09T14:15:50.067Z,13.47
2023-04-09T14:18:18.570Z,12.00
2023-04-09T14:20:48.132Z,11.53
2023-04-09T14:23:16.604Z,11.97
2023-04-09T14:25:46.092Z,12.47
2023-04-09T14:28:14.366Z,11.73
2023-04-09T14:30:45.569Z,10.90
2023-04-09T14:33:13.854Z,11.30
2023-04-09T14:35:42.347Z,11.70
2023-04-09T14:38:13.233Z,11.20
2023-04-09T14:40:41.475Z,11.93
2023-04-09T14:43:09.918Z,11.80
2023-04-09T14:45:38.323Z,11.73
2023-04-09T14:48:06.808Z,11.57
2023-04-09T14:50:36.198Z,10.90
2023-04-09T14:53:06.670Z,11.50
2023-04-09T14:55:36.236Z,12.87
2023-04-09T14:58:07.281Z,11.87
2023-04-09T15:00:36.102Z,13.63
2023-04-09T15:03:05.044Z,13.77
2023-04-09T15:05:33.452Z,12.97
2023-04-09T15:08:02.531Z,19.63
2023-04-09T15:10:32.451Z,16.13
2023-04-09T15:13:02.254Z,13.43
2023-04-09T15:15:30.586Z,11.93
2023-04-09T15:18:05.697Z,12.07
2023-04-09T15:20:37.574Z,11.27
2023-04-09T15:23:05.997Z,12.70
2023-04-09T15:25:34.419Z,12.67
2023-04-09T15:28:04.457Z,18.47
2023-04-09T15:30:35.544Z,12.53
2023-04-09T15:33:06.321Z,12.50
2023-04-09T15:35:35.305Z,12.33
2023-04-09T15:38:03.806Z,11.30
2023-04-09T15:40:32.776Z,12.07
2023-04-09T15:43:02.212Z,13.00
2023-04-09T15:45:32.014Z,13.13
2023-04-09T15:48:00.402Z,12.57
2023-04-09T15:50:28.933Z,13.57
2023-04-09T15:52:58.595Z,12.50
2023-04-09T15:55:30.786Z,11.63
2023-04-09T15:57:59.502Z,11.37
2023-04-09T16:00:29.337Z,11.40
2023-04-09T16:03:02.759Z,12.20
2023-04-09T16:05:32.745Z,11.93
2023-04-09T16:08:02.427Z,11.03
2023-04-09T16:10:32.044Z,11.20
2023-04-09T16:13:01.151Z,11.77
2023-04-09T16:15:29.955Z,12.03
2023-04-09T16:17:59.958Z,11.03
2023-04-09T16:20:29.671Z,12.17
2023-04-09T16:22:58.833Z,13.23
2023-04-09T16:25:28.213Z,17.43
2023-04-09T16:27:57.350Z,13.77
2023-04-09T16:30:26.282Z,13.13
2023-04-09T16:32:56.013Z,14.23
2023-04-09T16:35:26.095Z,20.33
2023-04-09T16:37:54.727Z,17.73
2023-04-09T16:40:24.426Z,16.57
2023-04-09T16:42:53.050Z,18.07
2023-04-09T16:45:22.110Z,16.33
2023-04-09T16:47:54.013Z,14.13
2023-04-09T16:50:22.670Z,16.33
2023-04-09T16:52:52.658Z,14.27
2023-04-09T16:55:22.211Z,13.83
2023-04-09T16:57:56.139Z,13.50
2023-04-09T17:00:24.561Z,12.90
2023-04-09T17:02:53.625Z,13.07
2023-04-09T17:05:22.928Z,13.77
2023-04-09T17:07:53.706Z,12.87
2023-04-09T17:10:23.300Z,13.47
2023-04-09T17:12:52.256Z,13.70
2023-04-09T17:15:23.104Z,14.53
2023-04-09T17:17:53.816Z,13.37
2023-04-09T17:20:29.966Z,13.20
2023-04-09T17:23:01.023Z,13.07
2023-04-09T17:25:32.324Z,23.17
2023-04-09T17:28:01.694Z,55.37
2023-04-09T17:30:33.230Z,22.50
2023-04-09T17:33:03.762Z,16.53
2023-04-09T17:35:32.784Z,22.90
2023-04-09T17:38:04.882Z,33.60
2023-04-09T17:40:43.136Z,17.83
2023-04-09T17:43:12.907Z,16.60
2023-04-09T17:45:42.778Z,15.77
2023-04-09T17:48:12.495Z,15.83
2023-04-09T17:50:41.840Z,16.37
2023-04-09T17:53:17.423Z,15.77
2023-04-09T17:55:50.853Z,16.20
2023-04-09T17:58:20.740Z,16.57
2023-04-09T18:00:49.165Z,16.63
2023-04-09T18:03:19.251Z,17.00
2023-04-09T18:05:47.791Z,17.60
2023-04-09T18:08:17.621Z,16.67
2023-04-09T18:11:01.684Z,16.13
2023-04-09T18:13:38.341Z,16.40
2023-04-09T18:16:10.085Z,17.37
2023-04-09T18:18:38.525Z,19.97
2023-04-09T18:21:07.350Z,19.57
2023-04-09T18:23:37.380Z,17.43
2023-04-09T18:26:06.898Z,18.03
2023-04-09T18:28:35.544Z,18.30
2023-04-09T18:31:03.938Z,18.90
2023-04-09T18:33:32.563Z,18.10
2023-04-09T18:36:01.737Z,18.83
2023-04-09T18:38:30.524Z,19.80
2023-04-09T18:41:01.543Z,25.10
2023-04-09T18:43:30.150Z,29.77
2023-04-09T18:45:58.642Z,29.73
2023-04-09T18:48:27.654Z,23.27
2023-04-09T18:50:55.996Z,24.13
2023-04-09T18:53:25.066Z,24.70
2023-04-09T18:55:53.632Z,21.67
2023-04-09T18:58:24.033Z,19.97
2023-04-09T19:00:53.011Z,18.77
2023-04-09T19:03:21.984Z,18.90
2023-04-09T19:05:50.711Z,16.77
2023-04-09T19:08:19.123Z,16.50
2023-04-09T19:10:48.411Z,15.77
2023-04-09T19:13:17.027Z,15.53
2023-04-09T19:15:46.730Z,15.97
2023-04-09T19:18:15.160Z,15.67
2023-04-09T19:20:44.180Z,16.00
2023-04-09T19:23:12.494Z,16.83
2023-04-09T19:25:41.027Z,15.87
2023-04-09T19:28:09.499Z,16.27
2023-04-09T19:30:37.876Z,15.73
2023-04-09T19:33:07.721Z,15.83
2023-04-09T19:35:42.214Z,15.77
2023-04-09T19:38:10.595Z,15.33
2023-04-09T19:40:39.044Z,15.13
2023-04-09T19:43:07.617Z,14.77
2023-04-09T19:45:37.369Z,14.13
2023-04-09T19:48:07.586Z,14.13
2023-04-09T19:50:37.790Z,13.87
2023-04-09T19:53:07.169Z,14.07
2023-04-09T19:55:37.888Z,14.37
2023-04-09T19:58:06.801Z,14.63
2023-04-09T20:00:36.260Z,14.57
2023-04-09T20:03:06.029Z,14.60
2023-04-09T20:05:35.882Z,14.53
2023-04-09T20:08:04.494Z,12.83
2023-04-09T20:10:32.746Z,15.23
2023-04-09T20:13:01.652Z,15.10
2023-04-09T20:15:30.239Z,15.37
2023-04-09T20:17:58.734Z,15.87
2023-04-09T20:20:27.266Z,16.00
2023-04-09T20:22:57.648Z,16.37
2023-04-09T20:25:26.394Z,15.43
2023-04-09T20:27:55.330Z,17.37
2023-04-09T20:30:23.869Z,15.87
2023-04-09T20:32:52.310Z,15.27
2023-04-09T20:35:40.398Z,15.70
2023-04-09T20:38:10.571Z,14.77
2023-04-09T20:40:39.035Z,16.07
2023-04-09T20:43:07.677Z,16.23
2023-04-09T20:45:36.077Z,16.03
2023-04-09T20:48:04.633Z,18.97
2023-04-09T20:50:33.058Z,15.53
2023-04-09T20:53:01.535Z,17.67
2023-04-09T20:55:31.192Z,15.53
2023-04-09T20:58:00.232Z,15.80
2023-04-09T21:00:28.644Z,15.47
2023-04-09T21:02:57.008Z,16.07
2023-04-09T21:05:25.328Z,15.87
2023-04-09T21:07:54.239Z,17.00
2023-04-09T21:10:22.819Z,17.40
2023-04-09T21:12:52.369Z,16.23
2023-04-09T21:15:20.683Z,17.07
2023-04-09T21:17:49.152Z,15.63
2023-04-09T21:20:17.556Z,14.80
2023-04-09T21:22:45.908Z,15.53
2023-04-09T21:25:15.518Z,16.77
2023-04-09T21:27:44.097Z,15.20
2023-04-09T21:30:13.986Z,17.07
2023-04-09T21:32:42.276Z,16.70
2023-04-09T21:35:10.648Z,16.23
2023-04-09T21:37:39.024Z,16.27
2023-04-09T21:40:09.665Z,17.33
2023-04-09T21:42:38.115Z,17.93
2023-04-09T21:45:07.784Z,17.17
2023-04-09T21:47:37.668Z,17.20
2023-04-09T21:50:06.753Z,16.60
2023-04-09T21:52:35.619Z,16.43
2023-04-09T21:55:10.370Z,16.63
2023-04-09T21:57:44.480Z,17.73
2023-04-09T22:00:16.206Z,17.60
2023-04-09T22:02:46.591Z,17.17
2023-04-09T22:05:15.805Z,16.00
2023-04-09T22:07:45.178Z,19.73
2023-04-09T22:10:13.756Z,16.43
2023-04-09T22:12:42.317Z,18.70
2023-04-09T22:15:12.183Z,20.80
2023-04-09T22:17:40.631Z,19.37
2023-04-09T22:20:11.159Z,19.90
2023-04-09T22:22:39.938Z,18.63
2023-04-09T22:25:09.024Z,18.33
2023-04-09T22:27:37.427Z,18.43
2023-04-09T22:30:06.586Z,18.90
2023-04-09T22:32:35.152Z,18.77
2023-04-09T22:36:11.393Z,17.43
2023-04-09T22:38:41.486Z,16.80
2023-04-09T22:41:10.201Z,16.97
2023-04-09T22:43:46.882Z,17.07
2023-04-09T22:46:15.240Z,16.80
2023-04-09T22:48:45.028Z,17.27
2023-04-09T22:51:14.537Z,16.73
2023-04-09T22:53:44.283Z,16.97
2023-04-09T22:56:12.658Z,16.20
2023-04-09T22:58:41.094Z,16.77
2023-04-09T23:01:09.593Z,16.10
2023-04-09T23:03:37.938Z,17.70
2023-04-09T23:06:06.888Z,17.63
2023-04-09T23:08:35.264Z,18.23
2023-04-09T23:11:07.303Z,17.03
2023-04-09T23:13:35.660Z,18.07
2023-04-09T23:16:06.226Z,17.03
2023-04-09T23:18:35.901Z,17.27
2023-04-09T23:21:06.080Z,17.20
2023-04-09T23:23:34.563Z,16.47
2023-04-09T23:26:04.540Z,16.57
2023-04-09T23:28:33.045Z,16.97
2023-04-09T23:31:01.366Z,17.80
2023-04-09T23:33:29.603Z,16.57
2023-04-09T23:35:57.759Z,18.00
2023-04-09T23:38:26.186Z,18.20
2023-04-09T23:40:54.376Z,16.60
2023-04-09T23:43:23.951Z,16.67
2023-04-09T23:45:52.157Z,17.20
2023-04-09T23:48:20.319Z,17.63
2023-04-09T23:50:49.734Z,17.33
2023-04-09T23:53:17.976Z,16.80
2023-04-09T23:55:47.744Z,16.70
2023-04-09T23:58:16.050Z,17.53
